Flight Track Log - Related Links

Times and Time Zones

All times are in EDT time to prevent confusion due to time zone crossing. See the N99AT flight status page for this flight to view local times or setup timezone preferences in your user account.

Time Position Orientation Groundspeed Altitude Reporting Facility
EDT Latitude Longitude Course Direction KTS MPH feet Rate Location/Type
Wed 02:34:00 PM 29.8762 -85.3121 130° Southeast  Level Estimated
Wed 02:35:00 PM 29.8459 -85.1945 106° East  Level FlightAware Approximate
Wed 02:35:05 PM 30.0647 -85.3886 127° Southeast 350 403 19,800  Level Jacksonville Center
Wed 02:36:00 PM 29.8156 -85.0770 107° East  Level FlightAware Approximate
Wed 02:36:05 PM 29.9867 -85.3147 141° Southeast 363 418 21,900  Level Jacksonville Center
Wed 02:37:00 PM 29.7333 -84.9994 133° Southeast  Level Estimated
Wed 02:37:05 PM 29.9089 -85.2383 140° Southeast 395 455 23,000  Level Jacksonville Center
Wed 02:38:00 PM 29.6509 -84.9220 134° Southeast  Level Estimated
Wed 02:38:05 PM 29.8247 -85.1550 139° Southeast 421 484 23,000  Level Jacksonville Center
Wed 02:39:00 PM 29.5685 -84.8446 139° Southeast  Level Estimated
Wed 02:39:05 PM 29.7261 -85.0642 141° Southeast 441 507 23,000  Level Jacksonville Center
Wed 02:40:00 PM 29.4860 -84.7674 127° Southeast  Level Estimated
Wed 02:40:05 PM 29.6297 -84.9689 139° Southeast 454 522 23,600  Level Jacksonville Center
Wed 02:41:05 PM 29.5369 -84.8808 140° Southeast 454 522 26,200 2,550 Climbing Jacksonville Center
Wed 02:42:05 PM 29.4506 -84.7981 140° Southeast 428 493 28,700 1,400 Climbing Jacksonville Center
Wed 02:43:05 PM 29.3600 -84.7225 144° Southeast 410 472 29,000 150 Climbing Jacksonville Center
Wed 02:44:05 PM 29.2631 -84.6372 142° Southeast 416 479 29,000 -50 Level Jacksonville Center
Wed 02:45:05 PM 29.1597 -84.5500 144° Southeast 443 510 28,900 -50 Descending Jacksonville Center
Wed 02:46:05 PM 29.0564 -84.4650 144° Southeast 455 524 28,900 700 Level Jacksonville Center
Wed 02:47:05 PM 28.9553 -84.3781 143° Southeast 461 531 30,300 1,562 Climbing Jacksonville Center
Wed 02:48:54 PM 28.7844 -84.2286 143° Southeast 465 535 33,300 1,527 Climbing Miami Center
Wed 02:49:54 PM 28.6908 -84.1492 143° Southeast 436 502 34,600 850 Climbing Miami Center
Wed 02:50:54 PM 28.5947 -84.0697 144° Southeast 431 496 35,000 150 Climbing Miami Center
Wed 02:51:54 PM 28.4928 -83.9806 142° Southeast 444 511 34,900 -100 Descending Miami Center
Wed 02:52:54 PM 28.3889 -83.8939 144° Southeast 459 528 34,800 -700 Descending Miami Center
Wed 02:53:54 PM 28.2831 -83.7978 141° Southeast 469 540 33,500 -1,500 Descending Miami Center
Wed 02:54:54 PM 28.1628 -83.6986 144° Southeast 483 556 31,800 -1,600 Descending Miami Center
Wed 02:55:54 PM 28.0547 -83.6028 142° Southeast 489 563 30,300 -1,500 Descending Miami Center
Wed 02:56:54 PM 27.9483 -83.5094 142° Southeast 494 568 28,800 -1,450 Descending Miami Center
Wed 02:57:54 PM 27.8381 -83.4139 143° Southeast 489 563 27,400 -1,300 Descending Miami Center
Wed 02:58:54 PM 27.7319 -83.3186 142° Southeast 489 563 26,200 -1,200 Descending Miami Center
Wed 02:59:54 PM 27.6256 -83.2261 142° Southeast 489 563 25,000 -1,200 Descending Miami Center
Wed 03:00:54 PM 27.5211 -83.1361 143° Southeast 484 557 23,800 -1,250 Descending Miami Center
Wed 03:01:54 PM 27.4186 -83.0464 142° Southeast 484 557 22,500 -1,250 Descending Miami Center
Wed 03:02:54 PM 27.3197 -82.9617 143° Southeast 474 545 21,300 -1,300 Descending Miami Center
Wed 03:03:54 PM 27.2192 -82.8744 142° Southeast 467 537 19,900 -1,500 Descending Miami Center
Wed 03:04:54 PM 27.1264 -82.7950 143° Southeast 452 520 18,300 -1,550 Descending Miami Center
Wed 03:05:54 PM 27.0317 -82.7133 142° Southeast 437 503 16,800 -1,450 Descending Miami Center
Wed 03:06:54 PM 26.9369 -82.6342 143° Southeast 432 497 15,400 -1,450 Descending Miami Center
Wed 03:07:54 PM 26.8461 -82.5553 142° Southeast 426 490 13,900 -1,300 Descending Miami Center
Wed 03:08:54 PM 26.7672 -82.4861 142° Southeast 408 470 12,800 -1,350 Descending Miami Center
Wed 03:09:54 PM 26.6783 -82.4122 143° Southeast 403 464 11,200 -1,100 Descending Miami Center
Wed 03:10:54 PM 26.5892 -82.3431 145° Southeast 403 464 10,600 -950 Descending Miami Center
Wed 03:11:54 PM 26.5119 -82.2839 146° Southeast 368 423 9,300 -1,600 Descending Miami Center
Wed 03:12:54 PM 26.4347 -82.2292 148° Southeast 306 352 7,400 -1,800 Descending Miami Center
Wed 03:13:54 PM 26.3658 -82.1775 146° Southeast 295 339 5,700 -1,200 Descending Miami Center
Wed 03:14:54 PM 26.2986 -82.1303 148° Southeast 290 334 5,000 -450 Descending Miami Center
Wed 03:15:54 PM 26.2442 -82.0769 139° Southeast 284 327 4,800 -800 Descending Miami Center
Wed 03:16:54 PM 26.2347 -81.9911 97° East 251 289 3,400 -900 Descending Miami Center
Wed 03:17:54 PM 26.2561 -81.9156 72° East 249 287 3,000 -200 Descending Miami Center
Wed 03:18:54 PM 26.2958 -81.8525 55° Northeast 238 274 3,000  Level Miami Center
Wed 03:20:00 PM 26.1923 -81.7970 154° Southeast  Level Estimated
Wed 03:27:00 PM 26.1524 -81.7756 154° Southeast  Level Estimated
Wed 03:28:00 PM 26.1524 -81.7756 36° Northeast  Level Estimated
Wed 03:29:00 PM 26.1524 -81.7756 36° Northeast  Level Estimated
Wed 03:30:00 PM 26.1524 -81.7756 36° Northeast  Level Estimated
Wed 03:31:00 PM 26.1524 -81.7756 36° Northeast  Level Estimated
Wed 03:32:00 PM 26.1524 -81.7756 36° Northeast  Level Estimated

Login

Don't have an account? Register now (free) for customized features, flight alerts, and more!